sensor_id;sensor_type;location;lat;lon;timestamp;pressure;altitude;pressure_sealevel;temperature;humidity
13604;BME280;24578;48.264;11.436;2023-05-17T00:00:37;96257.47;;;7.54;100.00
13604;BME280;24578;48.264;11.436;2023-05-17T00:03:59;96255.81;;;7.53;100.00
13604;BME280;24578;48.264;11.436;2023-05-17T00:07:21;96262.06;;;7.49;100.00
13604;BME280;24578;48.264;11.436;2023-05-17T00:10:42;96264.63;;;7.49;100.00
13604;BME280;24578;48.264;11.436;2023-05-17T00:14:04;96266.47;;;7.47;100.00
13604;BME280;24578;48.264;11.436;2023-05-17T00:17:26;96268.28;;;7.45;100.00
13604;BME280;24578;48.264;11.436;2023-05-17T00:20:48;96269.03;;;7.47;100.00
13604;BME280;24578;48.264;11.436;2023-05-17T00:24:09;96285.22;;;7.49;100.00
13604;BME280;24578;48.264;11.436;2023-05-17T00:27:31;96280.91;;;7.50;100.00
13604;BME280;24578;48.264;11.436;2023-05-17T00:30:53;96293.03;;;7.47;100.00
13604;BME280;24578;48.264;11.436;2023-05-17T00:34:15;96282.56;;;7.51;100.00
13604;BME280;24578;48.264;11.436;2023-05-17T00:37:36;96285.81;;;7.54;100.00
13604;BME280;24578;48.264;11.436;2023-05-17T00:40:58;96275.50;;;7.54;100.00
13604;BME280;24578;48.264;11.436;2023-05-17T00:44:20;96275.84;;;7.48;100.00
13604;BME280;24578;48.264;11.436;2023-05-17T00:47:42;96279.25;;;7.49;100.00
13604;BME280;24578;48.264;11.436;2023-05-17T00:51:03;96281.91;;;7.47;100.00
13604;BME280;24578;48.264;11.436;2023-05-17T00:54:25;96274.94;;;7.49;100.00
13604;BME280;24578;48.264;11.436;2023-05-17T00:57:48;96282.47;;;7.52;100.00
13604;BME280;24578;48.264;11.436;2023-05-17T01:01:10;96281.28;;;7.43;100.00
13604;BME280;24578;48.264;11.436;2023-05-17T01:04:32;96291.09;;;7.37;100.00
13604;BME280;24578;48.264;11.436;2023-05-17T01:07:53;96286.88;;;7.36;100.00
13604;BME280;24578;48.264;11.436;2023-05-17T01:15:24;96303.59;;;7.28;100.00
13604;BME280;24578;48.264;11.436;2023-05-17T01:26:42;96299.06;;;7.18;100.00
13604;BME280;24578;48.264;11.436;2023-05-17T01:30:12;96308.91;;;7.25;100.00
13604;BME280;24578;48.264;11.436;2023-05-17T01:33:35;96303.97;;;7.22;100.00
13604;BME280;24578;48.264;11.436;2023-05-17T01:36:57;96306.44;;;7.24;100.00
13604;BME280;24578;48.264;11.436;2023-05-17T01:40:22;96313.41;;;7.22;100.00
13604;BME280;24578;48.264;11.436;2023-05-17T01:50:57;96309.06;;;7.08;100.00
13604;BME280;24578;48.264;11.436;2023-05-17T01:54:22;96315.13;;;7.07;100.00
13604;BME280;24578;48.264;11.436;2023-05-17T01:57:52;96323.94;;;7.03;100.00
13604;BME280;24578;48.264;11.436;2023-05-17T02:01:17;96319.06;;;6.98;100.00
13604;BME280;24578;48.264;11.436;2023-05-17T02:04:39;96326.59;;;7.01;100.00
13604;BME280;24578;48.264;11.436;2023-05-17T02:08:01;96318.47;;;6.93;100.00
13604;BME280;24578;48.264;11.436;2023-05-17T02:11:22;96322.41;;;6.84;100.00
13604;BME280;24578;48.264;11.436;2023-05-17T02:14:44;96328.97;;;6.74;100.00
13604;BME280;24578;48.264;11.436;2023-05-17T02:18:06;96322.97;;;6.73;100.00
13604;BME280;24578;48.264;11.436;2023-05-17T02:21:28;96324.16;;;6.67;100.00
13604;BME280;24578;48.264;11.436;2023-05-17T02:24:49;96328.72;;;6.62;100.00
13604;BME280;24578;48.264;11.436;2023-05-17T02:28:11;96311.72;;;6.60;100.00
13604;BME280;24578;48.264;11.436;2023-05-17T02:31:33;96310.72;;;6.46;100.00
13604;BME280;24578;48.264;11.436;2023-05-17T02:34:55;96318.56;;;6.45;100.00
13604;BME280;24578;48.264;11.436;2023-05-17T02:38:17;96324.41;;;6.47;100.00
13604;BME280;24578;48.264;11.436;2023-05-17T02:41:38;96328.16;;;6.41;100.00
13604;BME280;24578;48.264;11.436;2023-05-17T02:45:00;96327.50;;;6.53;100.00
13604;BME280;24578;48.264;11.436;2023-05-17T02:48:22;96330.66;;;6.43;100.00
13604;BME280;24578;48.264;11.436;2023-05-17T02:51:44;96335.78;;;6.43;100.00
13604;BME280;24578;48.264;11.436;2023-05-17T02:55:06;96332.38;;;6.42;100.00
13604;BME280;24578;48.264;11.436;2023-05-17T02:58:28;96339.44;;;6.38;100.00
13604;BME280;24578;48.264;11.436;2023-05-17T03:01:49;96341.84;;;6.42;100.00
13604;BME280;24578;48.264;11.436;2023-05-17T03:05:11;96349.56;;;6.42;100.00
13604;BME280;24578;48.264;11.436;2023-05-17T03:08:33;96356.69;;;6.36;100.00
13604;BME280;24578;48.264;11.436;2023-05-17T03:11:55;96362.16;;;6.30;100.00
13604;BME280;24578;48.264;11.436;2023-05-17T03:15:16;96364.56;;;6.33;100.00
13604;BME280;24578;48.264;11.436;2023-05-17T03:18:38;96361.22;;;6.31;100.00
13604;BME280;24578;48.264;11.436;2023-05-17T03:22:00;96376.00;;;6.28;100.00
13604;BME280;24578;48.264;11.436;2023-05-17T03:25:22;96373.38;;;6.29;100.00
13604;BME280;24578;48.264;11.436;2023-05-17T03:28:44;96379.88;;;6.19;100.00
13604;BME280;24578;48.264;11.436;2023-05-17T03:32:05;96384.06;;;6.21;100.00
13604;BME280;24578;48.264;11.436;2023-05-17T03:35:27;96383.53;;;6.15;100.00
13604;BME280;24578;48.264;11.436;2023-05-17T03:38:49;96387.69;;;6.17;100.00
13604;BME280;24578;48.264;11.436;2023-05-17T03:42:11;96388.16;;;6.08;100.00
13604;BME280;24578;48.264;11.436;2023-05-17T03:45:32;96390.81;;;6.06;100.00
13604;BME280;24578;48.264;11.436;2023-05-17T03:48:54;96402.09;;;6.04;100.00
13604;BME280;24578;48.264;11.436;2023-05-17T03:52:16;96412.13;;;6.08;100.00
13604;BME280;24578;48.264;11.436;2023-05-17T03:55:38;96412.78;;;6.12;100.00
13604;BME280;24578;48.264;11.436;2023-05-17T03:59:00;96405.44;;;6.22;100.00
13604;BME280;24578;48.264;11.436;2023-05-17T04:02:22;96412.22;;;6.23;100.00
13604;BME280;24578;48.264;11.436;2023-05-17T04:05:43;96427.50;;;6.26;100.00
13604;BME280;24578;48.264;11.436;2023-05-17T04:09:07;96427.94;;;6.34;100.00
13604;BME280;24578;48.264;11.436;2023-05-17T04:12:31;96435.22;;;6.42;100.00
13604;BME280;24578;48.264;11.436;2023-05-17T04:15:52;96434.84;;;6.50;100.00
13604;BME280;24578;48.264;11.436;2023-05-17T04:19:14;96443.66;;;6.62;100.00
13604;BME280;24578;48.264;11.436;2023-05-17T04:22:36;96447.38;;;6.72;100.00
13604;BME280;24578;48.264;11.436;2023-05-17T04:25:57;96450.47;;;6.79;100.00
13604;BME280;24578;48.264;11.436;2023-05-17T04:29:19;96452.31;;;6.77;100.00
13604;BME280;24578;48.264;11.436;2023-05-17T04:32:41;96455.28;;;6.85;100.00
13604;BME280;24578;48.264;11.436;2023-05-17T04:36:03;96453.97;;;6.94;100.00
13604;BME280;24578;48.264;11.436;2023-05-17T04:39:25;96463.34;;;6.95;100.00
13604;BME280;24578;48.264;11.436;2023-05-17T04:42:47;96463.59;;;7.06;100.00
13604;BME280;24578;48.264;11.436;2023-05-17T04:46:09;96468.75;;;7.22;100.00
13604;BME280;24578;48.264;11.436;2023-05-17T04:49:31;96468.22;;;7.31;100.00
13604;BME280;24578;48.264;11.436;2023-05-17T04:52:53;96469.44;;;7.40;100.00
13604;BME280;24578;48.264;11.436;2023-05-17T04:56:15;96478.25;;;7.52;100.00
13604;BME280;24578;48.264;11.436;2023-05-17T04:59:37;96478.13;;;7.70;100.00
13604;BME280;24578;48.264;11.436;2023-05-17T05:02:59;96483.88;;;7.89;100.00
13604;BME280;24578;48.264;11.436;2023-05-17T05:06:20;96487.66;;;7.98;100.00
13604;BME280;24578;48.264;11.436;2023-05-17T05:09:42;96473.41;;;8.07;100.00
13604;BME280;24578;48.264;11.436;2023-05-17T05:13:04;96494.81;;;8.23;100.00
13604;BME280;24578;48.264;11.436;2023-05-17T05:16:26;96496.47;;;8.39;100.00
13604;BME280;24578;48.264;11.436;2023-05-17T05:19:48;96498.75;;;8.74;100.00
13604;BME280;24578;48.264;11.436;2023-05-17T05:23:10;96497.03;;;9.02;100.00
13604;BME280;24578;48.264;11.436;2023-05-17T05:26:31;96505.75;;;9.28;100.00
13604;BME280;24578;48.264;11.436;2023-05-17T05:29:54;96507.06;;;9.76;100.00
13604;BME280;24578;48.264;11.436;2023-05-17T05:33:15;96506.53;;;10.37;100.00
13604;BME280;24578;48.264;11.436;2023-05-17T05:36:37;96507.69;;;10.72;100.00
13604;BME280;24578;48.264;11.436;2023-05-17T05:39:59;96509.78;;;10.66;100.00
13604;BME280;24578;48.264;11.436;2023-05-17T05:43:21;96514.72;;;10.95;100.00
13604;BME280;24578;48.264;11.436;2023-05-17T05:46:42;96512.09;;;11.08;100.00
13604;BME280;24578;48.264;11.436;2023-05-17T05:50:05;96517.41;;;10.94;100.00
13604;BME280;24578;48.264;11.436;2023-05-17T05:53:27;96515.97;;;10.77;100.00
13604;BME280;24578;48.264;11.436;2023-05-17T05:56:48;96517.44;;;10.68;100.00
13604;BME280;24578;48.264;11.436;2023-05-17T06:00:12;96515.13;;;10.89;100.00
13604;BME280;24578;48.264;11.436;2023-05-17T06:03:33;96505.03;;;11.10;100.00
13604;BME280;24578;48.264;11.436;2023-05-17T06:06:55;96510.34;;;10.96;100.00
13604;BME280;24578;48.264;11.436;2023-05-17T06:10:17;96511.81;;;10.87;100.00
13604;BME280;24578;48.264;11.436;2023-05-17T06:13:39;96525.06;;;10.95;100.00
13604;BME280;24578;48.264;11.436;2023-05-17T06:17:00;96528.47;;;10.96;100.00
13604;BME280;24578;48.264;11.436;2023-05-17T06:20:22;96523.34;;;11.20;100.00
13604;BME280;24578;48.264;11.436;2023-05-17T06:23:44;96530.97;;;11.35;100.00
13604;BME280;24578;48.264;11.436;2023-05-17T06:27:06;96524.00;;;11.48;100.00
13604;BME280;24578;48.264;11.436;2023-05-17T06:30:28;96536.06;;;11.61;100.00
13604;BME280;24578;48.264;11.436;2023-05-17T06:33:49;96528.75;;;11.79;100.00
13604;BME280;24578;48.264;11.436;2023-05-17T06:37:11;96525.63;;;13.59;100.00
13604;BME280;24578;48.264;11.436;2023-05-17T06:40:33;96528.91;;;15.40;93.33
13604;BME280;24578;48.264;11.436;2023-05-17T06:43:54;96525.41;;;16.39;84.68
13604;BME280;24578;48.264;11.436;2023-05-17T06:47:16;96518.69;;;16.74;78.00
13604;BME280;24578;48.264;11.436;2023-05-17T06:50:38;96518.56;;;17.14;72.80
13604;BME280;24578;48.264;11.436;2023-05-17T06:54:00;96530.75;;;17.23;72.49
13604;BME280;24578;48.264;11.436;2023-05-17T06:57:22;96532.63;;;17.13;67.34
13604;BME280;24578;48.264;11.436;2023-05-17T07:00:44;96538.72;;;17.03;65.71
13604;BME280;24578;48.264;11.436;2023-05-17T07:04:06;96540.25;;;16.86;65.91
13604;BME280;24578;48.264;11.436;2023-05-17T07:07:28;96541.53;;;17.20;64.06
13604;BME280;24578;48.264;11.436;2023-05-17T07:10:51;96532.81;;;18.11;58.31
13604;BME280;24578;48.264;11.436;2023-05-17T07:14:13;96541.47;;;19.01;53.27
13604;BME280;24578;48.264;11.436;2023-05-17T07:17:36;96539.50;;;20.30;49.75
13604;BME280;24578;48.264;11.436;2023-05-17T07:20:57;96540.13;;;21.30;45.55
13604;BME280;24578;48.264;11.436;2023-05-17T07:24:19;96539.50;;;21.91;41.92
13604;BME280;24578;48.264;11.436;2023-05-17T07:27:41;96547.16;;;20.90;43.81
13604;BME280;24578;48.264;11.436;2023-05-17T07:31:04;96552.31;;;20.08;45.37
13604;BME280;24578;48.264;11.436;2023-05-17T07:34:26;96540.25;;;19.73;45.30
13604;BME280;24578;48.264;11.436;2023-05-17T07:37:47;96547.59;;;21.18;42.16
13604;BME280;24578;48.264;11.436;2023-05-17T07:41:09;96546.66;;;22.97;37.34
13604;BME280;24578;48.264;11.436;2023-05-17T07:44:33;96546.53;;;24.24;34.41
13604;BME280;24578;48.264;11.436;2023-05-17T07:47:55;96551.03;;;23.05;35.68
13604;BME280;24578;48.264;11.436;2023-05-17T07:51:17;96541.13;;;23.07;35.41
13604;BME280;24578;48.264;11.436;2023-05-17T07:54:38;96536.66;;;22.92;35.18
13604;BME280;24578;48.264;11.436;2023-05-17T07:58:00;96531.69;;;24.01;34.05
13604;BME280;24578;48.264;11.436;2023-05-17T08:01:22;96533.19;;;24.32;32.13
13604;BME280;24578;48.264;11.436;2023-05-17T08:04:44;96537.19;;;25.06;31.07
13604;BME280;24578;48.264;11.436;2023-05-17T08:08:06;96535.69;;;25.94;28.51
13604;BME280;24578;48.264;11.436;2023-05-17T08:11:28;96532.78;;;25.76;29.57
13604;BME280;24578;48.264;11.436;2023-05-17T08:14:50;96526.78;;;26.16;26.88
13604;BME280;24578;48.264;11.436;2023-05-17T08:18:11;96540.44;;;26.39;27.99
13604;BME280;24578;48.264;11.436;2023-05-17T08:21:33;96535.75;;;26.75;26.27
13604;BME280;24578;48.264;11.436;2023-05-17T08:24:57;96544.31;;;24.77;28.40
13604;BME280;24578;48.264;11.436;2023-05-17T08:28:19;96534.66;;;24.91;29.71
13604;BME280;24578;48.264;11.436;2023-05-17T08:31:41;96543.84;;;24.96;28.83
13604;BME280;24578;48.264;11.436;2023-05-17T08:35:03;96545.91;;;24.72;29.01
13604;BME280;24578;48.264;11.436;2023-05-17T08:38:25;96541.63;;;24.71;28.58
13604;BME280;24578;48.264;11.436;2023-05-17T08:41:47;96542.31;;;24.80;28.33
13604;BME280;24578;48.264;11.436;2023-05-17T08:45:09;96542.00;;;25.87;27.12
13604;BME280;24578;48.264;11.436;2023-05-17T08:48:34;96542.09;;;26.54;26.60
13604;BME280;24578;48.264;11.436;2023-05-17T08:51:59;96546.69;;;25.98;28.05
13604;BME280;24578;48.264;11.436;2023-05-17T08:55:22;96557.00;;;24.82;28.71
13604;BME280;24578;48.264;11.436;2023-05-17T08:58:47;96556.94;;;22.39;32.34
13604;BME280;24578;48.264;11.436;2023-05-17T09:02:12;96557.94;;;22.14;33.09
13604;BME280;24578;48.264;11.436;2023-05-17T09:05:35;96564.88;;;21.04;35.09
13604;BME280;24578;48.264;11.436;2023-05-17T09:08:56;96573.81;;;20.62;36.12
13604;BME280;24578;48.264;11.436;2023-05-17T09:12:21;96587.59;;;19.55;37.33
13604;BME280;24578;48.264;11.436;2023-05-17T09:15:46;96588.50;;;18.94;38.22
13604;BME280;24578;48.264;11.436;2023-05-17T09:19:14;96591.19;;;18.22;40.81
13604;BME280;24578;48.264;11.436;2023-05-17T09:22:36;96598.69;;;18.53;41.55
13604;BME280;24578;48.264;11.436;2023-05-17T09:26:06;96597.78;;;19.15;41.53
13604;BME280;24578;48.264;11.436;2023-05-17T09:29:31;96602.91;;;19.68;37.37
13604;BME280;24578;48.264;11.436;2023-05-17T09:32:56;96597.00;;;19.66;35.15
13604;BME280;24578;48.264;11.436;2023-05-17T09:36:22;96596.25;;;19.39;35.87
13604;BME280;24578;48.264;11.436;2023-05-17T09:39:45;96598.56;;;19.42;37.65
13604;BME280;24578;48.264;11.436;2023-05-17T09:43:09;96596.16;;;20.16;34.69
13604;BME280;24578;48.264;11.436;2023-05-17T09:46:32;96594.38;;;19.66;37.20
13604;BME280;24578;48.264;11.436;2023-05-17T09:50:00;96600.06;;;19.10;37.92
13604;BME280;24578;48.264;11.436;2023-05-17T09:53:26;96606.88;;;18.58;38.87
13604;BME280;24578;48.264;11.436;2023-05-17T09:56:54;96597.00;;;18.70;39.78
13604;BME280;24578;48.264;11.436;2023-05-17T10:00:19;96584.66;;;20.26;35.17
13604;BME280;24578;48.264;11.436;2023-05-17T10:03:41;96578.69;;;21.94;33.38
13604;BME280;24578;48.264;11.436;2023-05-17T10:07:04;96586.47;;;23.10;30.56
13604;BME280;24578;48.264;11.436;2023-05-17T10:10:26;96585.81;;;22.78;30.21
13604;BME280;24578;48.264;11.436;2023-05-17T10:14:01;96568.53;;;24.02;28.38
13604;BME280;24578;48.264;11.436;2023-05-17T10:17:27;96562.44;;;25.09;27.37
13604;BME280;24578;48.264;11.436;2023-05-17T10:20:52;96563.19;;;25.31;28.12
13604;BME280;24578;48.264;11.436;2023-05-17T10:24:15;96556.31;;;25.08;27.64
13604;BME280;24578;48.264;11.436;2023-05-17T10:27:37;96552.34;;;25.68;26.69
13604;BME280;24578;48.264;11.436;2023-05-17T10:31:02;96550.09;;;25.65;24.43
13604;BME280;24578;48.264;11.436;2023-05-17T10:34:25;96556.25;;;23.80;27.09
13604;BME280;24578;48.264;11.436;2023-05-17T10:37:48;96564.19;;;22.60;28.69
13604;BME280;24578;48.264;11.436;2023-05-17T10:41:12;96564.50;;;21.72;30.66
13604;BME280;24578;48.264;11.436;2023-05-17T10:44:35;96568.25;;;21.29;31.07
13604;BME280;24578;48.264;11.436;2023-05-17T10:48:01;96567.59;;;20.54;34.63
13604;BME280;24578;48.264;11.436;2023-05-17T10:51:30;96568.38;;;19.89;36.00
13604;BME280;24578;48.264;11.436;2023-05-17T10:54:52;96574.16;;;19.50;35.47
13604;BME280;24578;48.264;11.436;2023-05-17T10:58:18;96575.75;;;19.42;36.68
13604;BME280;24578;48.264;11.436;2023-05-17T11:02:03;96577.31;;;19.61;36.92
13604;BME280;24578;48.264;11.436;2023-05-17T11:05:25;96558.47;;;21.07;33.06
13604;BME280;24578;48.264;11.436;2023-05-17T11:09:07;96554.56;;;22.67;29.57
13604;BME280;24578;48.264;11.436;2023-05-17T11:12:39;96542.09;;;23.66;30.83
13604;BME280;24578;48.264;11.436;2023-05-17T11:16:08;96550.47;;;22.26;31.83
13604;BME280;24578;48.264;11.436;2023-05-17T11:19:29;96539.59;;;21.74;29.72
13604;BME280;24578;48.264;11.436;2023-05-17T11:22:58;96544.03;;;20.94;31.54
13604;BME280;24578;48.264;11.436;2023-05-17T11:26:22;96541.59;;;20.68;32.12
13604;BME280;24578;48.264;11.436;2023-05-17T11:29:47;96539.66;;;20.53;30.16
13604;BME280;24578;48.264;11.436;2023-05-17T11:33:08;96539.81;;;20.60;32.17
13604;BME280;24578;48.264;11.436;2023-05-17T11:36:32;96542.25;;;20.62;32.82
13604;BME280;24578;48.264;11.436;2023-05-17T11:40:09;96538.50;;;20.39;33.30
13604;BME280;24578;48.264;11.436;2023-05-17T11:43:33;96546.66;;;19.78;34.18
13604;BME280;24578;48.264;11.436;2023-05-17T11:47:03;96545.81;;;19.70;34.88
13604;BME280;24578;48.264;11.436;2023-05-17T11:50:25;96550.44;;;19.76;32.92
13604;BME280;24578;48.264;11.436;2023-05-17T11:53:47;96556.06;;;19.89;32.48
13604;BME280;24578;48.264;11.436;2023-05-17T11:57:11;96545.91;;;20.28;31.13
13604;BME280;24578;48.264;11.436;2023-05-17T12:00:37;96545.06;;;20.52;30.88
13604;BME280;24578;48.264;11.436;2023-05-17T12:04:02;96537.63;;;20.97;30.58
13604;BME280;24578;48.264;11.436;2023-05-17T12:07:24;96542.09;;;19.89;32.50
13604;BME280;24578;48.264;11.436;2023-05-17T12:10:50;96548.88;;;19.48;34.83
13604;BME280;24578;48.264;11.436;2023-05-17T12:14:16;96543.03;;;19.71;34.46
13604;BME280;24578;48.264;11.436;2023-05-17T12:17:43;96545.69;;;19.80;33.51
13604;BME280;24578;48.264;11.436;2023-05-17T12:21:07;96551.66;;;20.06;32.58
13604;BME280;24578;48.264;11.436;2023-05-17T12:24:36;96548.59;;;19.60;34.32
13604;BME280;24578;48.264;11.436;2023-05-17T12:28:17;96533.69;;;21.33;31.96
13604;BME280;24578;48.264;11.436;2023-05-17T12:31:52;96541.19;;;22.07;29.11
13604;BME280;24578;48.264;11.436;2023-05-17T12:35:14;96536.19;;;22.59;28.98
13604;BME280;24578;48.264;11.436;2023-05-17T12:38:42;96539.56;;;23.12;28.82
13604;BME280;24578;48.264;11.436;2023-05-17T12:42:04;96532.38;;;24.31;27.09
13604;BME280;24578;48.264;11.436;2023-05-17T12:45:27;96528.75;;;24.96;25.72
13604;BME280;24578;48.264;11.436;2023-05-17T12:48:50;96533.78;;;23.69;26.72
13604;BME280;24578;48.264;11.436;2023-05-17T12:52:12;96547.66;;;22.04;29.67
13604;BME280;24578;48.264;11.436;2023-05-17T12:55:37;96545.16;;;21.48;30.06
13604;BME280;24578;48.264;11.436;2023-05-17T12:59:14;96537.91;;;21.02;30.61
13604;BME280;24578;48.264;11.436;2023-05-17T13:02:42;96540.16;;;21.22;31.91
13604;BME280;24578;48.264;11.436;2023-05-17T13:06:08;96524.63;;;21.98;30.08
13604;BME280;24578;48.264;11.436;2023-05-17T13:09:32;96537.19;;;22.58;29.29
13604;BME280;24578;48.264;11.436;2023-05-17T13:12:58;96533.19;;;23.52;28.88
13604;BME280;24578;48.264;11.436;2023-05-17T13:16:28;96521.59;;;24.33;27.80
13604;BME280;24578;48.264;11.436;2023-05-17T13:19:50;96526.72;;;24.35;27.16
13604;BME280;24578;48.264;11.436;2023-05-17T13:23:12;96531.06;;;22.19;31.60
13604;BME280;24578;48.264;11.436;2023-05-17T13:26:34;96533.22;;;20.89;33.72
13604;BME280;24578;48.264;11.436;2023-05-17T13:29:55;96543.44;;;19.93;35.28
13604;BME280;24578;48.264;11.436;2023-05-17T13:33:17;96541.56;;;19.69;33.70
13604;BME280;24578;48.264;11.436;2023-05-17T13:36:40;96538.81;;;19.87;33.75
13604;BME280;24578;48.264;11.436;2023-05-17T13:40:03;96537.84;;;19.96;35.47
13604;BME280;24578;48.264;11.436;2023-05-17T13:43:24;96540.63;;;19.95;34.21
13604;BME280;24578;48.264;11.436;2023-05-17T13:46:47;96540.03;;;19.58;34.60
13604;BME280;24578;48.264;11.436;2023-05-17T13:50:09;96549.81;;;19.31;35.54
13604;BME280;24578;48.264;11.436;2023-05-17T13:53:30;96539.78;;;18.92;36.42
13604;BME280;24578;48.264;11.436;2023-05-17T13:56:52;96538.50;;;19.39;37.14
13604;BME280;24578;48.264;11.436;2023-05-17T14:00:15;96534.41;;;20.29;33.99
13604;BME280;24578;48.264;11.436;2023-05-17T14:03:37;96540.66;;;20.52;32.33
13604;BME280;24578;48.264;11.436;2023-05-17T14:07:00;96542.28;;;19.87;33.28
13604;BME280;24578;48.264;11.436;2023-05-17T14:10:23;96543.59;;;18.97;34.01
13604;BME280;24578;48.264;11.436;2023-05-17T14:13:45;96542.75;;;18.44;37.27
13604;BME280;24578;48.264;11.436;2023-05-17T14:17:07;96547.63;;;18.39;38.19
13604;BME280;24578;48.264;11.436;2023-05-17T14:20:29;96549.06;;;18.86;37.35
13604;BME280;24578;48.264;11.436;2023-05-17T14:23:51;96541.53;;;18.56;37.01
13604;BME280;24578;48.264;11.436;2023-05-17T14:27:12;96544.66;;;18.16;38.50
13604;BME280;24578;48.264;11.436;2023-05-17T14:30:34;96546.19;;;17.90;39.87
13604;BME280;24578;48.264;11.436;2023-05-17T14:33:57;96544.81;;;17.50;39.54
13604;BME280;24578;48.264;11.436;2023-05-17T14:37:18;96546.94;;;17.09;41.07
13604;BME280;24578;48.264;11.436;2023-05-17T14:40:42;96550.97;;;16.93;42.55
13604;BME280;24578;48.264;11.436;2023-05-17T14:44:04;96547.34;;;16.66;41.88
13604;BME280;24578;48.264;11.436;2023-05-17T14:47:26;96553.97;;;16.41;43.40
13604;BME280;24578;48.264;11.436;2023-05-17T14:50:48;96548.44;;;16.73;43.39
13604;BME280;24578;48.264;11.436;2023-05-17T14:54:09;96544.50;;;16.87;44.85
13604;BME280;24578;48.264;11.436;2023-05-17T14:57:32;96543.00;;;17.04;40.82
13604;BME280;24578;48.264;11.436;2023-05-17T15:00:53;96542.09;;;17.14;40.67
13604;BME280;24578;48.264;11.436;2023-05-17T15:04:19;96546.00;;;17.00;41.22
13604;BME280;24578;48.264;11.436;2023-05-17T15:07:41;96551.44;;;16.69;41.35
13604;BME280;24578;48.264;11.436;2023-05-17T15:11:02;96549.44;;;16.33;42.60
13604;BME280;24578;48.264;11.436;2023-05-17T15:14:24;96548.78;;;16.11;42.44
13604;BME280;24578;48.264;11.436;2023-05-17T15:17:46;96556.63;;;16.02;41.67
13604;BME280;24578;48.264;11.436;2023-05-17T15:21:09;96556.72;;;15.90;43.63
13604;BME280;24578;48.264;11.436;2023-05-17T15:24:31;96555.72;;;15.81;44.31
13604;BME280;24578;48.264;11.436;2023-05-17T15:27:53;96559.34;;;16.00;44.79
13604;BME280;24578;48.264;11.436;2023-05-17T15:31:15;96563.63;;;16.21;42.83
13604;BME280;24578;48.264;11.436;2023-05-17T15:34:37;96570.22;;;16.15;42.70
13604;BME280;24578;48.264;11.436;2023-05-17T15:38:02;96567.75;;;16.04;43.58
13604;BME280;24578;48.264;11.436;2023-05-17T15:41:26;96570.47;;;15.92;44.23
13604;BME280;24578;48.264;11.436;2023-05-17T15:44:48;96569.53;;;15.93;44.45
13604;BME280;24578;48.264;11.436;2023-05-17T15:48:10;96565.78;;;15.76;44.85
13604;BME280;24578;48.264;11.436;2023-05-17T15:51:32;96575.66;;;15.63;47.26
13604;BME280;24578;48.264;11.436;2023-05-17T15:54:54;96575.81;;;15.30;49.79
13604;BME280;24578;48.264;11.436;2023-05-17T15:58:20;96574.81;;;15.21;49.25
13604;BME280;24578;48.264;11.436;2023-05-17T16:01:42;96584.19;;;15.03;49.57
13604;BME280;24578;48.264;11.436;2023-05-17T16:05:06;96586.66;;;14.95;49.60
13604;BME280;24578;48.264;11.436;2023-05-17T16:08:29;96586.09;;;14.91;50.00
13604;BME280;24578;48.264;11.436;2023-05-17T16:11:50;96579.56;;;14.64;50.00
13604;BME280;24578;48.264;11.436;2023-05-17T16:15:12;96585.00;;;14.51;50.07
13604;BME280;24578;48.264;11.436;2023-05-17T16:18:34;96592.94;;;14.50;49.61
13604;BME280;24578;48.264;11.436;2023-05-17T16:21:55;96589.31;;;14.41;51.02
13604;BME280;24578;48.264;11.436;2023-05-17T16:25:21;96592.53;;;14.33;54.54
13604;BME280;24578;48.264;11.436;2023-05-17T16:28:43;96592.88;;;14.40;56.68
13604;BME280;24578;48.264;11.436;2023-05-17T16:32:05;96596.22;;;14.30;58.07
13604;BME280;24578;48.264;11.436;2023-05-17T16:35:28;96607.41;;;14.10;59.91
13604;BME280;24578;48.264;11.436;2023-05-17T16:38:49;96605.75;;;13.76;58.34
13604;BME280;24578;48.264;11.436;2023-05-17T16:42:13;96610.06;;;13.43;58.74
13604;BME280;24578;48.264;11.436;2023-05-17T16:45:35;96612.53;;;13.10;60.26
13604;BME280;24578;48.264;11.436;2023-05-17T16:48:57;96626.91;;;12.92;62.29
13604;BME280;24578;48.264;11.436;2023-05-17T16:52:19;96622.16;;;12.86;62.91
13604;BME280;24578;48.264;11.436;2023-05-17T16:55:41;96633.75;;;12.82;65.16
13604;BME280;24578;48.264;11.436;2023-05-17T16:59:03;96629.72;;;12.77;66.06
13604;BME280;24578;48.264;11.436;2023-05-17T17:02:26;96630.16;;;12.60;70.11
13604;BME280;24578;48.264;11.436;2023-05-17T17:05:48;96639.38;;;12.64;68.33
13604;BME280;24578;48.264;11.436;2023-05-17T17:09:10;96632.75;;;12.60;67.09
13604;BME280;24578;48.264;11.436;2023-05-17T17:12:32;96634.81;;;12.43;68.27
13604;BME280;24578;48.264;11.436;2023-05-17T17:15:54;96627.34;;;12.27;70.87
13604;BME280;24578;48.264;11.436;2023-05-17T17:19:16;96632.75;;;12.24;70.92
13604;BME280;24578;48.264;11.436;2023-05-17T17:22:38;96643.38;;;12.08;72.71
13604;BME280;24578;48.264;11.436;2023-05-17T17:25:59;96644.25;;;11.96;74.92
13604;BME280;24578;48.264;11.436;2023-05-17T17:29:21;96644.00;;;11.75;78.06
13604;BME280;24578;48.264;11.436;2023-05-17T17:32:43;96649.31;;;11.73;80.60
13604;BME280;24578;48.264;11.436;2023-05-17T17:36:05;96658.97;;;11.58;82.19
13604;BME280;24578;48.264;11.436;2023-05-17T17:39:29;96657.63;;;11.52;83.94
13604;BME280;24578;48.264;11.436;2023-05-17T17:42:51;96659.94;;;11.44;85.84
13604;BME280;24578;48.264;11.436;2023-05-17T17:46:12;96664.94;;;11.34;88.10
13604;BME280;24578;48.264;11.436;2023-05-17T17:49:34;96662.22;;;11.36;86.98
13604;BME280;24578;48.264;11.436;2023-05-17T17:52:56;96664.94;;;11.21;87.07
13604;BME280;24578;48.264;11.436;2023-05-17T17:56:18;96676.94;;;11.09;86.96
13604;BME280;24578;48.264;11.436;2023-05-17T17:59:43;96668.03;;;11.01;88.14